createdAt,value
2023-03-15T00:00:38.557Z,8.02
2023-03-15T00:05:42.969Z,5.97
2023-03-15T00:10:46.757Z,7.07
2023-03-15T00:15:55.982Z,12.43
2023-03-15T00:20:57.995Z,15.07
2023-03-15T00:25:59.536Z,8.57
2023-03-15T00:31:13.201Z,16.65
2023-03-15T00:36:15.385Z,9.10
2023-03-15T00:41:19.522Z,8.25
2023-03-15T00:46:21.153Z,10.57
2023-03-15T00:51:24.388Z,11.48
2023-03-15T00:56:27.858Z,14.68
2023-03-15T01:01:30.090Z,14.32
2023-03-15T01:06:31.672Z,17.13
2023-03-15T01:11:33.181Z,9.98
2023-03-15T01:16:34.805Z,14.00
2023-03-15T01:21:36.342Z,14.50
2023-03-15T01:26:37.818Z,18.90
2023-03-15T01:31:39.741Z,13.63
2023-03-15T01:36:41.288Z,16.23
2023-03-15T01:41:42.858Z,14.05
2023-03-15T01:46:44.677Z,17.52
2023-03-15T01:51:53.244Z,12.80
2023-03-15T01:57:00.923Z,13.63
2023-03-15T02:02:04.699Z,10.38
2023-03-15T02:07:07.683Z,10.93
2023-03-15T02:12:10.731Z,12.15
2023-03-15T02:17:12.460Z,11.93
2023-03-15T02:22:40.829Z,15.85
2023-03-15T02:32:44.010Z,8.98
2023-03-15T02:37:45.912Z,10.00
2023-03-15T02:42:51.176Z,11.77
2023-03-15T02:47:53.409Z,10.05
2023-03-15T02:52:54.872Z,8.70
2023-03-15T02:57:56.795Z,11.32
2023-03-15T03:02:58.696Z,16.88
2023-03-15T03:08:00.184Z,8.35
2023-03-15T03:13:01.712Z,13.35
2023-03-15T03:18:03.613Z,14.23
2023-03-15T03:23:06.205Z,20.55
2023-03-15T03:28:07.890Z,15.25
2023-03-15T03:33:09.423Z,15.13
2023-03-15T03:38:11.844Z,12.43
2023-03-15T03:43:13.305Z,13.68
2023-03-15T03:48:14.829Z,8.80
2023-03-15T03:53:16.408Z,15.60
2023-03-15T03:58:17.933Z,12.40
2023-03-15T04:03:19.690Z,6.15
2023-03-15T04:08:21.803Z,12.38
2023-03-15T04:13:24.742Z,5.25
2023-03-15T04:18:26.293Z,9.52
2023-03-15T04:23:27.798Z,9.00
2023-03-15T04:28:30.309Z,7.90
2023-03-15T04:33:32.149Z,8.55
2023-03-15T04:38:35.515Z,3.92
2023-03-15T04:43:37.075Z,2.05
2023-03-15T04:48:38.635Z,2.55
2023-03-15T04:53:40.154Z,2.58
2023-03-15T04:58:41.696Z,3.95
2023-03-15T05:03:43.166Z,2.85
2023-03-15T05:08:45.400Z,3.50
2023-03-15T05:13:47.027Z,2.40
2023-03-15T05:18:48.525Z,2.60
2023-03-15T05:23:50.054Z,3.60
2023-03-15T05:28:52.447Z,5.78
2023-03-15T05:33:54.434Z,1.65
2023-03-15T05:38:55.979Z,2.80
2023-03-15T05:43:57.860Z,4.85
2023-03-15T05:48:59.397Z,3.35
2023-03-15T05:54:00.909Z,3.90
2023-03-15T05:59:03.677Z,3.03
2023-03-15T06:04:05.369Z,4.88
2023-03-15T06:09:06.952Z,5.70
2023-03-15T06:14:08.500Z,3.67
2023-03-15T06:19:10.050Z,6.15
2023-03-15T06:24:11.516Z,4.95
2023-03-15T06:29:13.105Z,5.00
2023-03-15T06:34:14.585Z,5.65
2023-03-15T06:39:16.285Z,5.63
2023-03-15T06:44:17.817Z,3.97
2023-03-15T06:49:19.352Z,4.68
2023-03-15T06:54:20.887Z,8.80
2023-03-15T06:59:22.763Z,4.65
2023-03-15T07:04:24.303Z,9.50
2023-03-15T07:09:25.959Z,13.05
2023-03-15T07:14:27.527Z,6.90
2023-03-15T07:19:29.054Z,7.32
2023-03-15T07:24:30.709Z,12.02
2023-03-15T07:29:32.480Z,9.27
2023-03-15T07:34:34.021Z,11.98
2023-03-15T07:39:35.509Z,12.93
2023-03-15T07:44:37.055Z,11.80
2023-03-15T07:49:38.565Z,11.40
2023-03-15T07:54:40.077Z,11.27
2023-03-15T07:59:41.753Z,16.92
2023-03-15T08:04:43.309Z,8.70
2023-03-15T08:09:44.938Z,9.90
2023-03-15T08:14:46.513Z,18.77
2023-03-15T08:19:48.073Z,12.13
2023-03-15T08:24:53.290Z,13.50
2023-03-15T08:29:54.844Z,12.95
2023-03-15T08:34:56.389Z,13.07
2023-03-15T08:40:09.660Z,12.80
2023-03-15T08:45:11.661Z,9.75
2023-03-15T08:50:15.480Z,7.97
2023-03-15T08:55:17.679Z,13.00
2023-03-15T09:00:23.256Z,16.23
2023-03-15T09:05:25.640Z,10.25
2023-03-15T09:10:27.197Z,10.30
2023-03-15T09:15:28.728Z,13.18
2023-03-15T09:20:31.817Z,8.35
2023-03-15T09:25:33.397Z,11.90
2023-03-15T09:30:36.616Z,12.68
2023-03-15T09:35:38.191Z,11.00
2023-03-15T09:40:44.597Z,7.40
2023-03-15T09:46:08.098Z,11.23
2023-03-15T09:51:25.098Z,13.43
2023-03-15T09:56:36.592Z,12.68
2023-03-15T10:01:40.888Z,8.15
2023-03-15T10:06:49.449Z,15.07
2023-03-15T10:12:15.631Z,10.25
2023-03-15T10:17:31.065Z,9.05
2023-03-15T10:22:40.793Z,9.50
2023-03-15T10:28:21.116Z,7.60
2023-03-15T10:33:36.940Z,10.23
2023-03-15T10:38:39.262Z,5.95
2023-03-15T10:43:41.611Z,7.47
2023-03-15T10:48:58.640Z,9.25
2023-03-15T10:54:05.624Z,8.55
2023-03-15T10:59:17.259Z,13.40
2023-03-15T11:04:21.413Z,6.22
2023-03-15T11:09:25.562Z,5.38
2023-03-15T11:14:42.003Z,6.88
2023-03-15T11:19:53.891Z,8.80
2023-03-15T11:24:55.906Z,8.38
2023-03-15T11:30:01.783Z,11.27
2023-03-15T11:35:07.657Z,10.55
2023-03-15T11:40:25.269Z,5.03
2023-03-15T11:45:51.195Z,6.97
2023-03-15T11:50:54.915Z,6.43
2023-03-15T11:55:58.594Z,7.80
2023-03-15T12:01:06.145Z,7.28
2023-03-15T12:06:12.464Z,4.20
2023-03-15T12:11:33.806Z,5.93
2023-03-15T12:16:42.524Z,4.72
2023-03-15T12:21:49.244Z,7.88
2023-03-15T12:27:01.103Z,5.45
2023-03-15T12:32:02.567Z,7.00
2023-03-15T12:37:13.378Z,11.45
2023-03-15T12:42:33.175Z,6.18
2023-03-15T12:47:47.432Z,7.95
2023-03-15T12:52:53.510Z,8.85
2023-03-15T12:57:57.961Z,9.85
2023-03-15T13:03:06.288Z,4.07
2023-03-15T13:08:21.985Z,20.15
2023-03-15T13:13:38.771Z,9.63
2023-03-15T13:18:54.265Z,5.65
2023-03-15T13:23:59.073Z,7.45
2023-03-15T13:29:10.062Z,8.05
2023-03-15T13:34:24.352Z,4.43
2023-03-15T13:39:28.934Z,8.77
2023-03-15T13:44:31.731Z,6.57
2023-03-15T13:49:34.145Z,6.10
2023-03-15T13:54:35.999Z,4.53
2023-03-15T13:59:46.590Z,7.53
2023-03-15T14:05:01.706Z,6.63
2023-03-15T14:10:23.951Z,5.65
2023-03-15T14:15:41.440Z,6.22
2023-03-15T14:20:44.597Z,11.13
2023-03-15T14:25:55.168Z,7.95
2023-03-15T14:30:58.509Z,5.30
2023-03-15T14:36:03.851Z,5.80
2023-03-15T14:41:22.692Z,7.03
2023-03-15T14:46:24.223Z,7.82
2023-03-15T14:51:28.425Z,7.63
2023-03-15T14:56:29.955Z,6.43
2023-03-15T15:01:32.685Z,9.68
2023-03-15T15:06:36.796Z,4.30
2023-03-15T15:11:38.340Z,6.93
2023-03-15T15:16:40.411Z,6.88
2023-03-15T15:21:43.604Z,6.85
2023-03-15T15:26:45.512Z,5.55
2023-03-15T15:31:47.084Z,7.55
2023-03-15T15:36:48.753Z,9.57
2023-03-15T15:41:50.602Z,7.80
2023-03-15T15:46:52.567Z,5.30
2023-03-15T15:51:54.186Z,6.28
2023-03-15T15:56:57.612Z,5.63
2023-03-15T16:02:02.033Z,8.90
2023-03-15T16:07:04.230Z,10.57
2023-03-15T16:12:17.800Z,4.55
2023-03-15T16:17:22.145Z,6.47
2023-03-15T16:22:24.003Z,7.38
2023-03-15T16:27:27.223Z,6.07
2023-03-15T16:32:42.893Z,7.65
2023-03-15T16:37:46.184Z,11.63
2023-03-15T16:42:49.317Z,1.85
2023-03-15T16:47:51.471Z,4.93
2023-03-15T16:52:55.375Z,9.50
2023-03-15T16:57:57.223Z,10.32
2023-03-15T17:03:00.088Z,8.77
2023-03-15T17:08:02.031Z,11.40
2023-03-15T17:13:03.600Z,14.25
2023-03-15T17:18:13.639Z,7.47
2023-03-15T17:23:15.996Z,16.05
2023-03-15T17:28:17.804Z,8.85
2023-03-15T17:33:19.637Z,7.45
2023-03-15T17:38:33.708Z,10.93
2023-03-15T17:43:36.768Z,8.85
2023-03-15T17:48:38.853Z,7.07
2023-03-15T17:53:40.842Z,5.80
2023-03-15T17:58:46.877Z,10.88
2023-03-15T18:03:50.313Z,11.38
2023-03-15T18:08:52.340Z,20.75
2023-03-15T18:13:54.807Z,21.05
2023-03-15T18:18:56.513Z,20.65
2023-03-15T18:23:58.212Z,12.50
2023-03-15T18:28:59.808Z,12.35
2023-03-15T18:34:03.477Z,22.17
2023-03-15T18:39:06.369Z,12.43
2023-03-15T18:44:10.263Z,10.40
2023-03-15T18:49:11.854Z,15.98
2023-03-15T18:54:13.519Z,13.88
2023-03-15T18:59:14.990Z,12.75
2023-03-15T19:04:16.563Z,40.45
2023-03-15T19:09:18.114Z,56.10
2023-03-15T19:14:19.726Z,63.22
2023-03-15T19:19:21.300Z,135.88
2023-03-15T19:24:22.992Z,60.78
2023-03-15T19:29:24.553Z,17.73
2023-03-15T19:34:26.039Z,19.08
2023-03-15T19:39:27.504Z,14.00
2023-03-15T19:44:30.831Z,11.52
2023-03-15T19:49:32.328Z,12.38
2023-03-15T19:54:34.152Z,62.35
2023-03-15T19:59:39.923Z,49.33
2023-03-15T20:04:41.645Z,17.77
2023-03-15T20:09:43.344Z,25.30
2023-03-15T20:14:44.903Z,24.10
2023-03-15T20:19:46.922Z,11.98
2023-03-15T20:24:48.405Z,13.63
2023-03-15T20:29:49.919Z,10.63
2023-03-15T20:34:57.134Z,9.88
2023-03-15T20:39:58.673Z,8.65
2023-03-15T20:45:00.203Z,5.97
2023-03-15T20:50:02.249Z,5.60
2023-03-15T20:55:05.809Z,7.20
2023-03-15T21:00:12.757Z,9.40
2023-03-15T21:05:16.340Z,5.43
2023-03-15T21:10:18.017Z,8.85
2023-03-15T21:15:20.354Z,8.15
2023-03-15T21:20:22.265Z,15.18
2023-03-15T21:25:24.103Z,10.77
2023-03-15T21:30:26.268Z,4.85
2023-03-15T21:35:28.027Z,7.03
2023-03-15T21:40:29.669Z,9.05
2023-03-15T21:45:31.393Z,5.18
2023-03-15T21:50:33.240Z,4.85
2023-03-15T21:55:34.812Z,8.15
2023-03-15T22:00:36.541Z,6.00
2023-03-15T22:05:39.746Z,9.68
2023-03-15T22:10:41.266Z,8.70
2023-03-15T22:15:42.764Z,11.07
2023-03-15T22:20:47.639Z,6.43
2023-03-15T22:25:50.255Z,9.00
2023-03-15T22:30:52.343Z,8.48
2023-03-15T22:35:58.517Z,7.07
2023-03-15T22:41:02.277Z,9.02
2023-03-15T22:46:04.152Z,9.80
2023-03-15T22:51:08.189Z,7.45
2023-03-15T22:56:09.675Z,11.02
2023-03-15T23:01:11.266Z,9.48
2023-03-15T23:06:12.838Z,8.90
2023-03-15T23:11:14.415Z,10.23
2023-03-15T23:16:17.349Z,10.95
2023-03-15T23:21:18.971Z,8.70
2023-03-15T23:26:20.777Z,12.18
2023-03-15T23:31:22.336Z,8.60
2023-03-15T23:36:23.869Z,9.23
2023-03-15T23:41:25.513Z,10.38
2023-03-15T23:46:27.112Z,9.80
2023-03-15T23:51:28.704Z,10.55
2023-03-15T23:56:30.498Z,7.68
